Time,TemperatureF,DewpointF,PressureIn,WindDirection,WindDirectionDegrees,WindSpeedMPH,WindSpeedGustMPH,Humidity,HourlyPrecipIn,Conditions,Clouds,dailyrainin,SoftwareType,DateUTC
2013-02-13 00:03:00,42.6,38.1,30.08,NW,319,16.0,19.0,84,0.00,,,0.00,VWS V14.00,2013-02-13 06:03:00,
2013-02-13 00:08:00,42.5,38.0,30.09,WNW,298,24.0,28.0,84,0.00,,,0.00,VWS V14.00,2013-02-13 06:08:00,
2013-02-13 00:13:00,42.5,37.7,30.09,NNW,331,10.0,21.0,83,0.00,,,0.00,VWS V14.00,2013-02-13 06:13:00,
2013-02-13 00:18:00,42.5,37.7,30.09,NW,323,12.0,15.0,83,0.00,,,0.00,VWS V14.00,2013-02-13 06:18:00,
2013-02-13 00:23:00,42.4,37.6,30.09,WNW,294,23.0,23.0,83,0.00,,,0.00,VWS V14.00,2013-02-13 06:23:00,
2013-02-13 00:28:00,42.1,37.0,30.09,NNW,345,10.0,22.0,82,0.00,,,0.00,VWS V14.00,2013-02-13 06:28:00,
2013-02-13 00:33:00,42.0,36.9,30.09,NNW,337,13.0,20.0,82,0.00,,,0.00,VWS V14.00,2013-02-13 06:33:00,
2013-02-13 00:38:00,41.9,36.8,30.09,North,350,11.0,19.0,82,0.00,,,0.00,VWS V14.00,2013-02-13 06:38:00,
2013-02-13 00:43:00,41.8,37.0,30.10,West,274,1.0,18.0,83,0.00,,,0.00,VWS V14.00,2013-02-13 06:43:00,
2013-02-13 00:48:00,41.7,36.9,30.10,NW,308,16.0,16.0,83,0.00,,,0.00,VWS V14.00,2013-02-13 06:48:00,
2013-02-13 00:53:00,41.3,36.5,30.10,NNW,334,14.0,19.0,83,0.00,,,0.00,VWS V14.00,2013-02-13 06:53:00,
2013-02-13 00:58:00,41.1,36.3,30.10,WNW,288,14.0,20.0,83,0.00,,,0.00,VWS V14.00,2013-02-13 06:58:00,
2013-02-13 01:03:00,41.1,36.3,30.10,NW,316,20.0,22.0,83,0.00,,,0.00,VWS V14.00,2013-02-13 07:03:00,
2013-02-13 01:08:00,41.1,36.3,30.10,West,277,14.0,23.0,83,0.00,,,0.00,VWS V14.00,2013-02-13 07:08:00,
2013-02-13 01:13:00,41.1,36.3,30.10,WNW,292,11.0,22.0,83,0.00,,,0.00,VWS V14.00,2013-02-13 07:13:00,
2013-02-13 01:18:00,41.1,36.3,30.10,WNW,292,12.0,19.0,83,0.00,,,0.00,VWS V14.00,2013-02-13 07:18:00,
2013-02-13 01:23:00,41.1,36.0,30.10,NW,313,21.0,27.0,82,0.00,,,0.00,VWS V14.00,2013-02-13 07:23:00,
2013-02-13 01:28:00,41.1,36.0,30.11,NW,321,22.0,22.0,82,0.00,,,0.00,VWS V14.00,2013-02-13 07:28:00,
2013-02-13 01:34:00,41.1,36.0,30.11,NNW,327,6.0,23.0,82,0.00,,,0.00,VWS V14.00,2013-02-13 07:34:00,
2013-02-13 01:39:00,41.1,36.0,30.11,West,270,11.0,21.0,82,0.00,,,0.00,VWS V14.00,2013-02-13 07:39:00,
2013-02-13 01:44:00,41.2,36.1,30.11,NW,313,7.0,25.0,82,0.00,,,0.00,VWS V14.00,2013-02-13 07:44:00,
2013-02-13 01:49:00,41.1,36.0,30.11,WNW,302,18.0,22.0,82,0.00,,,0.00,VWS V14.00,2013-02-13 07:49:00,
2013-02-13 01:54:00,41.2,36.1,30.11,WNW,303,12.0,19.0,82,0.00,,,0.00,VWS V14.00,2013-02-13 07:54:00,
2013-02-13 01:59:00,41.2,36.1,30.11,WNW,294,15.0,26.0,82,0.00,,,0.00,VWS V14.00,2013-02-13 07:59:00,
2013-02-13 02:04:00,41.1,36.0,30.12,NW,309,6.0,24.0,82,0.00,,,0.00,VWS V14.00,2013-02-13 08:04:00,
2013-02-13 02:09:00,41.1,35.7,30.11,WNW,283,12.0,20.0,81,0.00,,,0.00,VWS V14.00,2013-02-13 08:09:00,
2013-02-13 02:14:00,41.1,36.0,30.12,NNW,344,6.0,25.0,82,0.00,,,0.00,VWS V14.00,2013-02-13 08:14:00,
2013-02-13 02:19:00,41.1,36.0,30.11,WNW,298,11.0,20.0,82,0.00,,,0.00,VWS V14.00,2013-02-13 08:19:00,
2013-02-13 02:24:00,41.1,36.0,30.12,WNW,290,10.0,24.0,82,0.00,,,0.00,VWS V14.00,2013-02-13 08:24:00,
2013-02-13 02:29:00,41.1,36.0,30.11,WNW,297,18.0,21.0,82,0.00,,,0.00,VWS V14.00,2013-02-13 08:29:00,
2013-02-13 02:34:00,41.1,35.7,30.12,NW,318,12.0,24.0,81,0.00,,,0.00,VWS V14.00,2013-02-13 08:34:00,
2013-02-13 02:39:00,41.2,36.1,30.12,WNW,300,16.0,19.0,82,0.00,,,0.00,VWS V14.00,2013-02-13 08:39:00,
2013-02-13 02:44:00,41.1,35.7,30.12,NW,314,26.0,26.0,81,0.00,,,0.00,VWS V14.00,2013-02-13 08:44:00,
2013-02-13 02:50:00,41.1,35.4,30.12,North,360,5.0,21.0,80,0.00,,,0.00,VWS V14.00,2013-02-13 08:50:00,
2013-02-13 02:55:00,41.0,35.3,30.11,NW,305,12.0,23.0,80,0.00,,,0.00,VWS V14.00,2013-02-13 08:55:00,
2013-02-13 03:00:00,40.9,35.2,30.12,NNW,334,14.0,31.0,80,0.00,,,0.00,VWS V14.00,2013-02-13 09:00:00,
2013-02-13 03:05:00,40.9,35.2,30.12,NW,318,19.0,23.0,80,0.00,,,0.00,VWS V14.00,2013-02-13 09:05:00,
2013-02-13 03:10:00,40.9,35.2,30.12,WNW,288,18.0,20.0,80,0.00,,,0.00,VWS V14.00,2013-02-13 09:10:00,
2013-02-13 03:15:00,40.8,35.1,30.12,NNW,335,21.0,22.0,80,0.00,,,0.00,VWS V14.00,2013-02-13 09:15:00,
2013-02-13 03:20:00,40.8,35.4,30.12,NW,309,10.0,25.0,81,0.00,,,0.00,VWS V14.00,2013-02-13 09:20:00,
2013-02-13 03:25:00,40.8,35.1,30.12,NW,310,16.0,20.0,80,0.00,,,0.00,VWS V14.00,2013-02-13 09:25:00,
2013-02-13 03:30:00,40.8,35.4,30.12,West,260,7.0,7.0,81,0.00,,,0.00,VWS V14.00,2013-02-13 09:30:00,
2013-02-13 03:35:00,40.7,35.3,30.12,NW,317,23.0,23.0,81,0.00,,,0.00,VWS V14.00,2013-02-13 09:35:00,
2013-02-13 03:40:00,40.5,35.1,30.12,WNW,300,15.0,15.0,81,0.00,,,0.00,VWS V14.00,2013-02-13 09:40:00,
2013-02-13 03:45:00,40.3,34.9,30.12,West,277,14.0,14.0,81,0.00,,,0.00,VWS V14.00,2013-02-13 09:45:00,
2013-02-13 03:50:00,40.2,34.8,30.13,NW,307,18.0,18.0,81,0.00,,,0.00,VWS V14.00,2013-02-13 09:50:00,
2013-02-13 03:55:00,40.2,34.8,30.13,NW,309,9.0,10.0,81,0.00,,,0.00,VWS V14.00,2013-02-13 09:55:00,
2013-02-13 04:00:00,40.1,35.1,30.13,NW,306,8.0,10.0,82,0.00,,,0.00,VWS V14.00,2013-02-13 10:00:00,
2013-02-13 04:05:00,40.1,35.1,30.13,North,360,20.0,23.0,82,0.00,,,0.00,VWS V14.00,2013-02-13 10:05:00,
2013-02-13 04:10:00,40.0,34.7,30.13,NW,314,12.0,16.0,81,0.00,,,0.00,VWS V14.00,2013-02-13 10:10:00,
2013-02-13 04:15:00,40.0,34.7,30.13,SSW,200,7.0,11.0,81,0.00,,,0.00,VWS V14.00,2013-02-13 10:15:00,
2013-02-13 04:20:00,40.0,34.7,30.13,NW,317,13.0,13.0,81,0.00,,,0.00,VWS V14.00,2013-02-13 10:20:00,
2013-02-13 04:25:00,40.1,34.8,30.13,NW,325,7.0,12.0,81,0.00,,,0.00,VWS V14.00,2013-02-13 10:25:00,
2013-02-13 04:30:00,40.0,34.7,30.13,NNW,347,7.0,8.0,81,0.00,,,0.00,VWS V14.00,2013-02-13 10:30:00,
2013-02-13 04:35:00,40.0,34.7,30.13,WNW,292,19.0,20.0,81,0.00,,,0.00,VWS V14.00,2013-02-13 10:35:00,
2013-02-13 04:40:00,40.0,34.7,30.13,NW,319,13.0,13.0,81,0.00,,,0.00,VWS V14.00,2013-02-13 10:40:00,
2013-02-13 04:46:00,40.0,34.7,30.14,WNW,298,13.0,16.0,81,0.00,,,0.00,VWS V14.00,2013-02-13 10:46:00,
2013-02-13 04:51:00,40.0,34.7,30.14,NW,309,6.0,12.0,81,0.00,,,0.00,VWS V14.00,2013-02-13 10:51:00,
2013-02-13 04:56:00,40.2,34.8,30.13,NW,306,9.0,14.0,81,0.00,,,0.00,VWS V14.00,2013-02-13 10:56:00,
2013-02-13 05:01:00,40.2,34.8,30.14,WSW,258,5.0,12.0,81,0.00,,,0.00,VWS V14.00,2013-02-13 11:01:00,
2013-02-13 05:06:00,40.2,34.8,30.14,NW,306,11.0,13.0,81,0.00,,,0.00,VWS V14.00,2013-02-13 11:06:00,
2013-02-13 05:11:00,40.2,34.8,30.14,NW,305,9.0,12.0,81,0.00,,,0.00,VWS V14.00,2013-02-13 11:11:00,
2013-02-13 05:16:00,40.2,34.8,30.14,WNW,294,5.0,14.0,81,0.00,,,0.00,VWS V14.00,2013-02-13 11:16:00,
2013-02-13 05:21:00,40.1,34.8,30.14,NW,306,20.0,20.0,81,0.00,,,0.00,VWS V14.00,2013-02-13 11:21:00,
2013-02-13 05:26:00,40.1,35.1,30.15,NW,325,15.0,15.0,82,0.00,,,0.00,VWS V14.00,2013-02-13 11:26:00,
2013-02-13 05:31:00,40.1,35.1,30.15,NW,313,11.0,14.0,82,0.00,,,0.00,VWS V14.00,2013-02-13 11:31:00,
2013-02-13 05:36:00,40.2,35.2,30.15,NW,312,14.0,14.0,82,0.00,,,0.00,VWS V14.00,2013-02-13 11:36:00,
2013-02-13 05:41:00,40.2,35.2,30.15,WNW,296,15.0,15.0,82,0.00,,,0.00,VWS V14.00,2013-02-13 11:41:00,
2013-02-13 05:46:00,40.2,34.8,30.15,NW,315,11.0,15.0,81,0.00,,,0.00,VWS V14.00,2013-02-13 11:46:00,
2013-02-13 05:51:00,40.1,34.8,30.15,NW,306,18.0,18.0,81,0.00,,,0.00,VWS V14.00,2013-02-13 11:51:00,
2013-02-13 05:56:00,40.0,34.7,30.16,NW,317,10.0,14.0,81,0.00,,,0.00,VWS V14.00,2013-02-13 11:56:00,
2013-02-13 06:01:00,40.1,34.8,30.15,NW,304,11.0,15.0,81,0.00,,,0.00,VWS V14.00,2013-02-13 12:01:00,
2013-02-13 06:06:00,40.1,34.8,30.16,NNW,334,13.0,13.0,81,0.00,,,0.00,VWS V14.00,2013-02-13 12:06:00,
2013-02-13 06:11:00,40.1,34.8,30.16,NNW,331,12.0,12.0,81,0.00,,,0.00,VWS V14.00,2013-02-13 12:11:00,
2013-02-13 06:16:00,40.0,34.7,30.16,NNW,331,8.0,19.0,81,0.00,,,0.00,VWS V14.00,2013-02-13 12:16:00,
2013-02-13 06:21:00,40.0,34.7,30.16,WNW,292,5.0,12.0,81,0.00,,,0.00,VWS V14.00,2013-02-13 12:21:00,
2013-02-13 06:26:00,40.0,34.7,30.16,NW,319,6.0,13.0,81,0.00,,,0.00,VWS V14.00,2013-02-13 12:26:00,
2013-02-13 06:31:00,39.9,34.5,30.16,NNW,340,6.0,19.0,81,0.00,,,0.00,VWS V14.00,2013-02-13 12:31:00,
2013-02-13 06:36:00,39.9,34.5,30.16,NW,313,10.0,10.0,81,0.00,,,0.00,VWS V14.00,2013-02-13 12:36:00,
2013-02-13 06:41:00,39.9,34.5,30.15,NW,304,15.0,16.0,81,0.00,,,0.00,VWS V14.00,2013-02-13 12:41:00,
2013-02-13 06:47:00,39.9,34.5,30.15,NW,315,7.0,12.0,81,0.00,,,0.00,VWS V14.00,2013-02-13 12:47:00,
2013-02-13 06:52:00,39.9,34.5,30.15,NNW,336,10.0,15.0,81,0.00,,,0.00,VWS V14.00,2013-02-13 12:52:00,
2013-02-13 06:57:00,39.8,34.5,30.15,NW,320,1.0,9.0,81,0.00,,,0.00,VWS V14.00,2013-02-13 12:57:00,
2013-02-13 07:02:00,39.8,34.5,30.16,WNW,292,7.0,9.0,81,0.00,,,0.00,VWS V14.00,2013-02-13 13:02:00,
2013-02-13 07:07:00,39.9,34.5,30.16,NW,311,8.0,11.0,81,0.00,,,0.00,VWS V14.00,2013-02-13 13:07:00,
2013-02-13 07:12:00,40.0,34.7,30.16,West,273,5.0,13.0,81,0.00,,,0.00,VWS V14.00,2013-02-13 13:12:00,
2013-02-13 07:17:00,39.9,34.5,30.16,WNW,300,9.0,11.0,81,0.00,,,0.00,VWS V14.00,2013-02-13 13:17:00,
2013-02-13 07:22:00,39.9,34.9,30.17,WSW,252,2.0,8.0,82,0.00,,,0.00,VWS V14.00,2013-02-13 13:22:00,
2013-02-13 07:27:00,39.9,34.9,30.17,WSW,240,3.0,10.0,82,0.00,,,0.00,VWS V14.00,2013-02-13 13:27:00,
2013-02-13 07:32:00,39.9,34.5,30.17,North,360,8.0,15.0,81,0.00,,,0.00,VWS V14.00,2013-02-13 13:32:00,
2013-02-13 07:37:00,39.9,34.5,30.17,North,360,4.0,11.0,81,0.00,,,0.00,VWS V14.00,2013-02-13 13:37:00,
2013-02-13 07:42:00,40.0,34.7,30.17,West,260,4.0,11.0,81,0.00,,,0.00,VWS V14.00,2013-02-13 13:42:00,
2013-02-13 07:47:00,40.0,34.7,30.18,WNW,293,13.0,13.0,81,0.00,,,0.00,VWS V14.00,2013-02-13 13:47:00,
2013-02-13 07:52:00,40.1,34.8,30.18,NW,305,7.0,13.0,81,0.00,,,0.00,VWS V14.00,2013-02-13 13:52:00,
2013-02-13 07:57:00,40.0,34.3,30.18,West,275,1.0,10.0,80,0.00,,,0.00,VWS V14.00,2013-02-13 13:57:00,
2013-02-13 08:02:00,40.0,34.3,30.18,SSW,199,7.0,14.0,80,0.00,,,0.00,VWS V14.00,2013-02-13 14:02:00,
2013-02-13 08:07:00,40.0,34.3,30.18,SW,227,4.0,16.0,80,0.00,,,0.00,VWS V14.00,2013-02-13 14:07:00,
2013-02-13 08:12:00,40.1,34.4,30.18,NW,304,12.0,14.0,80,0.00,,,0.00,VWS V14.00,2013-02-13 14:12:00,
2013-02-13 08:17:00,40.2,34.5,30.18,SW,215,4.0,12.0,80,0.00,,,0.00,VWS V14.00,2013-02-13 14:17:00,
2013-02-13 08:22:00,40.2,34.8,30.19,WNW,302,8.0,9.0,81,0.00,,,0.00,VWS V14.00,2013-02-13 14:22:00,
2013-02-13 08:27:00,40.2,34.8,30.19,SW,223,10.0,10.0,81,0.00,,,0.00,VWS V14.00,2013-02-13 14:27:00,
2013-02-13 08:32:00,40.2,34.8,30.19,SW,234,5.0,11.0,81,0.00,,,0.00,VWS V14.00,2013-02-13 14:32:00,
2013-02-13 08:37:00,40.3,34.9,30.19,West,264,10.0,10.0,81,0.00,,,0.00,VWS V14.00,2013-02-13 14:37:00,
2013-02-13 08:42:00,40.2,34.8,30.19,WSW,246,5.0,14.0,81,0.00,,,0.00,VWS V14.00,2013-02-13 14:42:00,
2013-02-13 08:48:00,40.0,34.7,30.19,SSW,202,8.0,12.0,81,0.00,,,0.00,VWS V14.00,2013-02-13 14:48:00,
2013-02-13 08:53:00,40.1,34.8,30.19,NW,322,12.0,13.0,81,0.00,,,0.00,VWS V14.00,2013-02-13 14:53:00,
2013-02-13 08:58:00,40.2,34.8,30.20,North,360,10.0,10.0,81,0.00,,,0.00,VWS V14.00,2013-02-13 14:58:00,
2013-02-13 09:03:00,40.5,35.1,30.20,NNW,336,15.0,15.0,81,0.00,,,0.00,VWS V14.00,2013-02-13 15:03:00,
2013-02-13 09:08:00,40.5,34.8,30.20,NW,319,12.0,15.0,80,0.00,,,0.00,VWS V14.00,2013-02-13 15:08:00,
2013-02-13 09:13:00,40.6,34.9,30.20,North,360,11.0,13.0,80,0.00,,,0.00,VWS V14.00,2013-02-13 15:13:00,
2013-02-13 09:18:00,40.5,34.5,30.20,North,360,6.0,11.0,79,0.00,,,0.00,VWS V14.00,2013-02-13 15:18:00,
2013-02-13 09:23:00,40.6,34.9,30.20,NW,311,8.0,11.0,80,0.00,,,0.00,VWS V14.00,2013-02-13 15:23:00,
2013-02-13 09:28:00,40.6,34.9,30.21,NW,315,11.0,12.0,80,0.00,,,0.00,VWS V14.00,2013-02-13 15:28:00,
2013-02-13 09:33:00,40.7,34.7,30.21,North,10,1.0,9.0,79,0.00,,,0.00,VWS V14.00,2013-02-13 15:33:00,
2013-02-13 09:38:00,40.9,34.9,30.21,NNW,342,1.0,9.0,79,0.00,,,0.00,VWS V14.00,2013-02-13 15:38:00,
2013-02-13 09:43:00,41.2,35.2,30.21,NNW,344,5.0,5.0,79,0.00,,,0.00,VWS V14.00,2013-02-13 15:43:00,
2013-02-13 09:48:00,41.4,35.4,30.21,NW,315,8.0,8.0,79,0.00,,,0.00,VWS V14.00,2013-02-13 15:48:00,
2013-02-13 09:53:00,41.4,35.4,30.21,West,265,4.0,7.0,79,0.00,,,0.00,VWS V14.00,2013-02-13 15:53:00,
2013-02-13 09:58:00,41.4,35.4,30.21,West,276,1.0,5.0,79,0.00,,,0.00,VWS V14.00,2013-02-13 15:58:00,
2013-02-13 10:03:00,41.7,35.7,30.21,WSW,244,0.0,5.0,79,0.00,,,0.00,VWS V14.00,2013-02-13 16:03:00,
2013-02-13 10:08:00,41.8,35.5,30.21,West,263,5.0,8.0,78,0.00,,,0.00,VWS V14.00,2013-02-13 16:08:00,
2013-02-13 10:13:00,41.9,35.5,30.21,West,267,0.0,8.0,78,0.00,,,0.00,VWS V14.00,2013-02-13 16:13:00,
2013-02-13 10:18:00,42.1,35.8,30.21,WSW,250,4.0,8.0,78,0.00,,,0.00,VWS V14.00,2013-02-13 16:18:00,
2013-02-13 10:23:00,42.2,35.8,30.22,SW,220,5.0,6.0,78,0.00,,,0.00,VWS V14.00,2013-02-13 16:23:00,
2013-02-13 10:28:00,42.5,35.8,30.22,WNW,283,2.0,7.0,77,0.00,,,0.00,VWS V14.00,2013-02-13 16:28:00,
2013-02-13 10:33:00,42.7,35.7,30.22,WSW,246,0.0,6.0,76,0.00,,,0.00,VWS V14.00,2013-02-13 16:33:00,
2013-02-13 10:38:00,42.9,35.9,30.22,WSW,254,6.0,6.0,76,0.00,,,0.00,VWS V14.00,2013-02-13 16:38:00,
2013-02-13 10:43:00,42.9,35.5,30.22,WSW,237,0.0,8.0,75,0.00,,,0.00,VWS V14.00,2013-02-13 16:43:00,
2013-02-13 10:49:00,43.3,35.9,30.22,West,263,5.0,5.0,75,0.00,,,0.00,VWS V14.00,2013-02-13 16:49:00,
2013-02-13 10:54:00,43.8,36.1,30.22,WSW,242,2.0,6.0,74,0.00,,,0.00,VWS V14.00,2013-02-13 16:54:00,
2013-02-13 10:59:00,43.8,36.1,30.22,West,259,6.0,6.0,74,0.00,,,0.00,VWS V14.00,2013-02-13 16:59:00,
2013-02-13 11:04:00,43.8,36.1,30.22,WSW,251,5.0,6.0,74,0.00,,,0.00,VWS V14.00,2013-02-13 17:04:00,
2013-02-13 11:09:00,44.0,36.3,30.22,WSW,254,5.0,6.0,74,0.00,,,0.00,VWS V14.00,2013-02-13 17:09:00,
2013-02-13 11:14:00,44.4,36.3,30.22,South,191,0.0,5.0,73,0.00,,,0.00,VWS V14.00,2013-02-13 17:14:00,
2013-02-13 11:19:00,44.9,36.8,30.22,SW,214,0.0,2.0,73,0.00,,,0.00,VWS V14.00,2013-02-13 17:19:00,
2013-02-13 11:24:00,45.5,37.4,30.21,WSW,247,0.0,1.0,73,0.00,,,0.00,VWS V14.00,2013-02-13 17:24:00,
2013-02-13 11:29:00,46.7,38.2,30.21,WSW,246,0.0,6.0,72,0.00,,,0.00,VWS V14.00,2013-02-13 17:29:00,
2013-02-13 11:34:00,47.8,37.8,30.21,NNW,334,2.0,5.0,68,0.00,,,0.00,VWS V14.00,2013-02-13 17:34:00,
2013-02-13 11:39:00,48.5,38.4,30.21,WSW,256,1.0,5.0,68,0.00,,,0.00,VWS V14.00,2013-02-13 17:39:00,
2013-02-13 11:44:00,48.6,37.4,30.21,WSW,252,0.0,6.0,65,0.00,,,0.00,VWS V14.00,2013-02-13 17:44:00,
2013-02-13 11:49:00,48.6,37.4,30.20,WSW,252,0.0,0.0,65,0.00,,,0.00,VWS V14.00,2013-02-13 17:49:00,
2013-02-13 11:54:00,49.4,38.1,30.20,WSW,248,0.0,2.0,65,0.00,,,0.00,VWS V14.00,2013-02-13 17:54:00,
2013-02-13 11:59:00,49.9,38.6,30.19,ENE,67,0.0,5.0,65,0.00,,,0.00,VWS V14.00,2013-02-13 17:59:00,
2013-02-13 12:04:00,50.0,37.5,30.19,ENE,69,0.0,0.0,62,0.00,,,0.00,VWS V14.00,2013-02-13 18:04:00,
2013-02-13 12:09:00,50.3,39.0,30.19,ENE,63,0.0,2.0,65,0.00,,,0.00,VWS V14.00,2013-02-13 18:09:00,
2013-02-13 12:14:00,50.9,38.4,30.19,North,360,0.0,4.0,62,0.00,,,0.00,VWS V14.00,2013-02-13 18:14:00,
2013-02-13 12:19:00,50.8,37.8,30.18,WSW,242,0.0,6.0,61,0.00,,,0.00,VWS V14.00,2013-02-13 18:19:00,
2013-02-13 12:25:00,50.8,37.8,30.18,WSW,239,0.0,0.0,61,0.00,,,0.00,VWS V14.00,2013-02-13 18:25:00,
2013-02-13 12:30:00,51.3,38.3,30.18,WSW,249,2.0,4.0,61,0.00,,,0.00,VWS V14.00,2013-02-13 18:30:00,
2013-02-13 12:35:00,51.3,38.7,30.18,NNW,336,5.0,6.0,62,0.00,,,0.00,VWS V14.00,2013-02-13 18:35:00,
2013-02-13 12:40:00,51.1,38.1,30.17,NNW,339,2.0,7.0,61,0.00,,,0.00,VWS V14.00,2013-02-13 18:40:00,
2013-02-13 12:45:00,51.1,38.5,30.17,North,360,4.0,5.0,62,0.00,,,0.00,VWS V14.00,2013-02-13 18:45:00,
2013-02-13 12:50:00,51.2,37.0,30.17,WNW,303,6.0,6.0,58,0.00,,,0.00,VWS V14.00,2013-02-13 18:50:00,
2013-02-13 12:55:00,50.7,37.3,30.17,WNW,288,0.0,0.0,60,0.00,,,0.00,VWS V14.00,2013-02-13 18:55:00,
2013-02-13 13:00:00,50.7,36.9,30.17,WSW,248,0.0,0.0,59,0.00,,,0.00,VWS V14.00,2013-02-13 19:00:00,
2013-02-13 13:05:00,51.1,37.7,30.16,SSW,204,0.0,0.0,60,0.00,,,0.00,VWS V14.00,2013-02-13 19:05:00,
2013-02-13 13:10:00,51.8,37.9,30.16,SSW,203,4.0,4.0,59,0.00,,,0.00,VWS V14.00,2013-02-13 19:10:00,
2013-02-13 13:15:00,52.4,38.1,30.15,SW,232,0.0,0.0,58,0.00,,,0.00,VWS V14.00,2013-02-13 19:15:00,
2013-02-13 13:20:00,53.0,38.6,30.15,NNE,23,1.0,1.0,58,0.00,,,0.00,VWS V14.00,2013-02-13 19:20:00,
2013-02-13 13:25:00,53.6,38.8,30.15,NNE,26,0.0,1.0,57,0.00,,,0.00,VWS V14.00,2013-02-13 19:25:00,
2013-02-13 13:30:00,53.8,38.0,30.14,WSW,249,4.0,5.0,55,0.00,,,0.00,VWS V14.00,2013-02-13 19:30:00,
2013-02-13 13:35:00,53.5,37.8,30.14,WSW,238,0.0,0.0,55,0.00,,,0.00,VWS V14.00,2013-02-13 19:35:00,
2013-02-13 13:40:00,53.7,38.4,30.14,SE,136,4.0,4.0,56,0.00,,,0.00,VWS V14.00,2013-02-13 19:40:00,
2013-02-13 13:45:00,53.6,37.4,30.13,ESE,111,0.0,0.0,54,0.00,,,0.00,VWS V14.00,2013-02-13 19:45:00,
2013-02-13 13:50:00,53.2,37.0,30.13,SSE,148,0.0,1.0,54,0.00,,,0.00,VWS V14.00,2013-02-13 19:50:00,
2013-02-13 13:55:00,53.4,37.7,30.13,SE,144,0.0,2.0,55,0.00,,,0.00,VWS V14.00,2013-02-13 19:55:00,
2013-02-13 14:00:00,53.7,37.9,30.12,North,360,1.0,1.0,55,0.00,,,0.00,VWS V14.00,2013-02-13 20:00:00,
2013-02-13 14:05:00,54.3,37.5,30.12,SW,236,0.0,5.0,53,0.00,,,0.00,VWS V14.00,2013-02-13 20:05:00,
2013-02-13 14:10:00,54.5,38.2,30.12,WSW,248,0.0,0.0,54,0.00,,,0.00,VWS V14.00,2013-02-13 20:10:00,
2013-02-13 14:16:00,55.0,38.2,30.12,WSW,245,2.0,3.0,53,0.00,,,0.00,VWS V14.00,2013-02-13 20:16:00,
2013-02-13 14:21:00,55.1,37.3,30.12,SSW,200,5.0,5.0,51,0.00,,,0.00,VWS V14.00,2013-02-13 20:21:00,
2013-02-13 14:26:00,54.3,36.6,30.12,SW,232,1.0,4.0,51,0.00,,,0.00,VWS V14.00,2013-02-13 20:26:00,
2013-02-13 14:31:00,54.6,37.8,30.11,SW,219,1.0,1.0,53,0.00,,,0.00,VWS V14.00,2013-02-13 20:31:00,
2013-02-13 14:36:00,55.0,37.7,30.11,SW,233,0.0,4.0,52,0.00,,,0.00,VWS V14.00,2013-02-13 20:36:00,
2013-02-13 14:41:00,55.3,37.0,30.11,WSW,248,0.0,4.0,50,0.00,,,0.00,VWS V14.00,2013-02-13 20:41:00,
2013-02-13 14:46:00,55.8,36.9,30.11,WSW,249,0.0,0.0,49,0.00,,,0.00,VWS V14.00,2013-02-13 20:46:00,
2013-02-13 14:51:00,56.4,38.0,30.11,West,281,0.0,4.0,50,0.00,,,0.00,VWS V14.00,2013-02-13 20:51:00,
2013-02-13 14:56:00,56.4,37.5,30.10,NNW,346,5.0,5.0,49,0.00,,,0.00,VWS V14.00,2013-02-13 20:56:00,
2013-02-13 15:01:00,56.1,36.7,30.10,North,355,0.0,1.0,48,0.00,,,0.00,VWS V14.00,2013-02-13 21:01:00,
2013-02-13 15:06:00,55.9,37.0,30.10,ENE,59,0.0,0.0,49,0.00,,,0.00,VWS V14.00,2013-02-13 21:06:00,
2013-02-13 15:11:00,56.5,37.1,30.10,ENE,61,0.0,0.0,48,0.00,,,0.00,VWS V14.00,2013-02-13 21:11:00,
2013-02-13 15:16:00,56.6,35.5,30.10,WNW,289,3.0,9.0,45,0.00,,,0.00,VWS V14.00,2013-02-13 21:16:00,
2013-02-13 15:21:00,56.0,35.5,30.10,West,259,0.0,1.0,46,0.00,,,0.00,VWS V14.00,2013-02-13 21:21:00,
2013-02-13 15:26:00,56.2,35.7,30.10,West,261,0.0,5.0,46,0.00,,,0.00,VWS V14.00,2013-02-13 21:26:00,
2013-02-13 15:31:00,56.4,35.3,30.09,WSW,254,3.0,7.0,45,0.00,,,0.00,VWS V14.00,2013-02-13 21:31:00,
2013-02-13 15:36:00,56.2,35.2,30.09,SW,233,1.0,9.0,45,0.00,,,0.00,VWS V14.00,2013-02-13 21:36:00,
2013-02-13 15:41:00,56.0,35.0,30.09,WSW,249,0.0,2.0,45,0.00,,,0.00,VWS V14.00,2013-02-13 21:41:00,
2013-02-13 15:46:00,56.0,35.0,30.09,SSW,194,7.0,7.0,45,0.00,,,0.00,VWS V14.00,2013-02-13 21:46:00,
2013-02-13 15:51:00,55.9,34.3,30.09,WNW,284,1.0,7.0,44,0.00,,,0.00,VWS V14.00,2013-02-13 21:51:00,
2013-02-13 15:56:00,56.1,34.5,30.09,North,360,1.0,1.0,44,0.00,,,0.00,VWS V14.00,2013-02-13 21:56:00,
2013-02-13 16:01:00,56.2,35.2,30.09,North,351,2.0,4.0,45,0.00,,,0.00,VWS V14.00,2013-02-13 22:01:00,
2013-02-13 16:07:00,56.5,34.9,30.09,West,260,0.0,4.0,44,0.00,,,0.00,VWS V14.00,2013-02-13 22:07:00,
2013-02-13 16:12:00,56.6,34.4,30.09,WNW,292,4.0,4.0,43,0.00,,,0.00,VWS V14.00,2013-02-13 22:12:00,
2013-02-13 16:17:00,56.4,35.3,30.09,NW,325,0.0,6.0,45,0.00,,,0.00,VWS V14.00,2013-02-13 22:17:00,
2013-02-13 16:22:00,56.5,35.4,30.09,West,265,1.0,2.0,45,0.00,,,0.00,VWS V14.00,2013-02-13 22:22:00,
2013-02-13 16:27:00,56.7,35.6,30.09,West,265,0.0,0.0,45,0.00,,,0.00,VWS V14.00,2013-02-13 22:27:00,
2013-02-13 16:32:00,56.7,35.6,30.09,NW,306,4.0,4.0,45,0.00,,,0.00,VWS V14.00,2013-02-13 22:32:00,
2013-02-13 16:37:00,56.5,34.9,30.09,West,259,3.0,8.0,44,0.00,,,0.00,VWS V14.00,2013-02-13 22:37:00,
2013-02-13 16:42:00,55.8,35.3,30.09,North,360,0.0,4.0,46,0.00,,,0.00,VWS V14.00,2013-02-13 22:42:00,
2013-02-13 16:47:00,55.8,35.3,30.09,NW,308,0.0,0.0,46,0.00,,,0.00,VWS V14.00,2013-02-13 22:47:00,
2013-02-13 16:52:00,56.0,35.5,30.09,NW,304,0.0,1.0,46,0.00,,,0.00,VWS V14.00,2013-02-13 22:52:00,
2013-02-13 16:57:00,56.1,35.6,30.09,WSW,238,5.0,5.0,46,0.00,,,0.00,VWS V14.00,2013-02-13 22:57:00,
2013-02-13 17:02:00,56.1,35.6,30.09,SW,234,0.0,0.0,46,0.00,,,0.00,VWS V14.00,2013-02-13 23:02:00,
2013-02-13 17:07:00,56.0,35.5,30.09,SW,235,0.0,0.0,46,0.00,,,0.00,VWS V14.00,2013-02-13 23:07:00,
2013-02-13 17:12:00,55.9,35.4,30.09,SW,236,0.0,0.0,46,0.00,,,0.00,VWS V14.00,2013-02-13 23:12:00,
2013-02-13 17:17:00,55.7,35.8,30.08,SW,236,0.0,0.0,47,0.00,,,0.00,VWS V14.00,2013-02-13 23:17:00,
2013-02-13 17:22:00,55.5,35.6,30.08,SW,233,0.0,0.0,47,0.00,,,0.00,VWS V14.00,2013-02-13 23:22:00,
2013-02-13 17:27:00,55.4,35.0,30.08,SW,234,0.0,0.0,46,0.00,,,0.00,VWS V14.00,2013-02-13 23:27:00,
2013-02-13 17:32:00,55.3,35.4,30.08,SW,235,0.0,0.0,47,0.00,,,0.00,VWS V14.00,2013-02-13 23:32:00,
2013-02-13 17:37:00,55.2,35.3,30.08,WSW,238,0.0,0.0,47,0.00,,,0.00,VWS V14.00,2013-02-13 23:37:00,
2013-02-13 17:42:00,55.1,35.2,30.08,SW,233,0.0,0.0,47,0.00,,,0.00,VWS V14.00,2013-02-13 23:42:00,
2013-02-13 17:48:00,54.9,34.5,30.08,SW,232,0.0,3.0,46,0.00,,,0.00,VWS V14.00,2013-02-13 23:48:00,
2013-02-13 17:53:00,54.8,35.0,30.08,South,183,2.0,5.0,47,0.00,,,0.00,VWS V14.00,2013-02-13 23:53:00,
2013-02-13 17:58:00,54.8,35.0,30.08,South,180,1.0,4.0,47,0.00,,,0.00,VWS V14.00,2013-02-13 23:58:00,
2013-02-13 18:03:00,54.6,34.8,30.08,South,179,2.0,4.0,47,0.00,,,0.00,VWS V14.00,2013-02-14 00:03:00,
2013-02-13 18:08:00,54.5,35.2,30.08,SSE,157,5.0,5.0,48,0.00,,,0.00,VWS V14.00,2013-02-14 00:08:00,
2013-02-13 18:13:00,54.2,35.0,30.08,SE,140,6.0,8.0,48,0.00,,,0.00,VWS V14.00,2013-02-14 00:13:00,
2013-02-13 18:18:00,53.9,35.2,30.08,SSE,157,7.0,8.0,49,0.00,,,0.00,VWS V14.00,2013-02-14 00:18:00,
2013-02-13 18:23:00,53.6,34.9,30.08,SE,137,9.0,9.0,49,0.00,,,0.00,VWS V14.00,2013-02-14 00:23:00,
2013-02-13 18:28:00,53.3,35.7,30.08,South,181,3.0,7.0,51,0.00,,,0.00,VWS V14.00,2013-02-14 00:28:00,
2013-02-13 18:33:00,53.0,35.9,30.08,SSE,163,7.0,8.0,52,0.00,,,0.00,VWS V14.00,2013-02-14 00:33:00,
2013-02-13 18:38:00,52.8,36.2,30.08,South,169,7.0,9.0,53,0.00,,,0.00,VWS V14.00,2013-02-14 00:38:00,
2013-02-13 18:44:00,52.5,36.3,30.08,SSE,157,7.0,9.0,54,0.00,,,0.00,VWS V14.00,2013-02-14 00:44:00,
2013-02-13 18:49:00,52.3,36.6,30.08,South,171,8.0,10.0,55,0.00,,,0.00,VWS V14.00,2013-02-14 00:49:00,
2013-02-13 18:54:00,52.1,36.9,30.08,SSW,192,6.0,10.0,56,0.00,,,0.00,VWS V14.00,2013-02-14 00:54:00,
2013-02-13 18:59:00,51.9,37.2,30.08,SSE,165,8.0,9.0,57,0.00,,,0.00,VWS V14.00,2013-02-14 00:59:00,
2013-02-13 19:04:00,51.7,37.4,30.08,SSE,168,7.0,10.0,58,0.00,,,0.00,VWS V14.00,2013-02-14 01:04:00,
2013-02-13 19:09:00,51.4,37.6,30.08,South,174,6.0,10.0,59,0.00,,,0.00,VWS V14.00,2013-02-14 01:09:00,
2013-02-13 19:14:00,51.1,37.3,30.08,SSW,203,5.0,10.0,59,0.00,,,0.00,VWS V14.00,2013-02-14 01:14:00,
2013-02-13 19:19:00,50.9,37.5,30.08,South,177,7.0,12.0,60,0.00,,,0.00,VWS V14.00,2013-02-14 01:19:00,
2013-02-13 19:24:00,50.7,37.3,30.08,SSW,203,8.0,10.0,60,0.00,,,0.00,VWS V14.00,2013-02-14 01:24:00,
2013-02-13 19:29:00,50.5,37.6,30.08,South,183,9.0,10.0,61,0.00,,,0.00,VWS V14.00,2013-02-14 01:29:00,
2013-02-13 19:35:00,50.3,37.4,30.08,South,187,7.0,11.0,61,0.00,,,0.00,VWS V14.00,2013-02-14 01:35:00,
2013-02-13 19:40:00,50.2,37.3,30.08,South,181,8.0,9.0,61,0.00,,,0.00,VWS V14.00,2013-02-14 01:40:00,
2013-02-13 19:45:00,50.1,37.2,30.08,South,184,9.0,9.0,61,0.00,,,0.00,VWS V14.00,2013-02-14 01:45:00,
2013-02-13 19:50:00,50.0,37.5,30.09,SSW,199,9.0,10.0,62,0.00,,,0.00,VWS V14.00,2013-02-14 01:50:00,
2013-02-13 19:55:00,49.9,37.4,30.09,SSE,168,8.0,9.0,62,0.00,,,0.00,VWS V14.00,2013-02-14 01:55:00,
2013-02-13 20:00:00,49.6,37.5,30.09,SSE,149,9.0,9.0,63,0.00,,,0.00,VWS V14.00,2013-02-14 02:00:00,
2013-02-13 20:05:00,49.4,37.3,30.09,SSW,194,6.0,6.0,63,0.00,,,0.00,VWS V14.00,2013-02-14 02:05:00,
2013-02-13 20:10:00,49.2,37.6,30.09,South,178,8.0,8.0,64,0.00,,,0.00,VWS V14.00,2013-02-14 02:10:00,
2013-02-13 20:15:00,49.1,37.5,30.09,SSE,160,8.0,8.0,64,0.00,,,0.00,VWS V14.00,2013-02-14 02:15:00,
2013-02-13 20:20:00,49.0,37.4,30.09,South,184,8.0,8.0,64,0.00,,,0.00,VWS V14.00,2013-02-14 02:20:00,
2013-02-13 20:25:00,48.8,37.2,30.09,South,177,7.0,7.0,64,0.00,,,0.00,VWS V14.00,2013-02-14 02:25:00,
2013-02-13 20:30:00,48.6,37.4,30.09,South,185,8.0,8.0,65,0.00,,,0.00,VWS V14.00,2013-02-14 02:30:00,
2013-02-13 20:35:00,48.5,37.3,30.09,South,187,9.0,9.0,65,0.00,,,0.00,VWS V14.00,2013-02-14 02:35:00,
2013-02-13 20:40:00,48.3,37.1,30.09,SSW,192,5.0,7.0,65,0.00,,,0.00,VWS V14.00,2013-02-14 02:40:00,
2013-02-13 20:45:00,48.3,37.5,30.10,South,182,6.0,8.0,66,0.00,,,0.00,VWS V14.00,2013-02-14 02:45:00,
2013-02-13 20:50:00,48.2,37.4,30.10,South,174,8.0,8.0,66,0.00,,,0.00,VWS V14.00,2013-02-14 02:50:00,
2013-02-13 20:55:00,48.1,37.3,30.09,South,184,9.0,9.0,66,0.00,,,0.00,VWS V14.00,2013-02-14 02:55:00,
2013-02-13 21:00:00,48.0,37.2,30.10,South,188,8.0,8.0,66,0.00,,,0.00,VWS V14.00,2013-02-14 03:00:00,
2013-02-13 21:05:00,47.9,37.1,30.10,SSE,160,6.0,8.0,66,0.00,,,0.00,VWS V14.00,2013-02-14 03:05:00,
2013-02-13 21:10:00,47.8,37.4,30.10,SSE,168,9.0,9.0,67,0.00,,,0.00,VWS V14.00,2013-02-14 03:10:00,
2013-02-13 21:16:00,47.7,37.3,30.10,South,179,6.0,9.0,67,0.00,,,0.00,VWS V14.00,2013-02-14 03:16:00,
2013-02-13 21:21:00,47.6,37.2,30.10,South,179,6.0,8.0,67,0.00,,,0.00,VWS V14.00,2013-02-14 03:21:00,
2013-02-13 21:26:00,47.5,37.1,30.10,SSW,204,4.0,9.0,67,0.00,,,0.00,VWS V14.00,2013-02-14 03:26:00,
2013-02-13 21:31:00,47.4,37.4,30.10,South,175,7.0,8.0,68,0.00,,,0.00,VWS V14.00,2013-02-14 03:31:00,
2013-02-13 21:36:00,47.3,37.3,30.10,South,188,7.0,8.0,68,0.00,,,0.00,VWS V14.00,2013-02-14 03:36:00,
2013-02-13 21:41:00,47.1,37.5,30.10,SSW,202,8.0,8.0,69,0.00,,,0.00,VWS V14.00,2013-02-14 03:41:00,
2013-02-13 21:46:00,47.0,37.4,30.11,South,190,5.0,5.0,69,0.00,,,0.00,VWS V14.00,2013-02-14 03:46:00,
2013-02-13 21:51:00,46.8,37.2,30.11,South,187,5.0,5.0,69,0.00,,,0.00,VWS V14.00,2013-02-14 03:51:00,
2013-02-13 21:56:00,46.7,37.5,30.11,South,187,4.0,6.0,70,0.00,,,0.00,VWS V14.00,2013-02-14 03:56:00,
2013-02-13 22:01:00,46.6,37.3,30.11,SSW,196,5.0,6.0,70,0.00,,,0.00,VWS V14.00,2013-02-14 04:01:00,
2013-02-13 22:06:00,46.5,37.3,30.11,South,190,6.0,6.0,70,0.00,,,0.00,VWS V14.00,2013-02-14 04:06:00,
2013-02-13 22:11:00,46.5,37.3,30.11,SSW,209,7.0,7.0,70,0.00,,,0.00,VWS V14.00,2013-02-14 04:11:00,
2013-02-13 22:16:00,46.4,37.5,30.11,South,180,4.0,7.0,71,0.00,,,0.00,VWS V14.00,2013-02-14 04:16:00,
2013-02-13 22:21:00,46.3,37.4,30.11,South,177,5.0,7.0,71,0.00,,,0.00,VWS V14.00,2013-02-14 04:21:00,
2013-02-13 22:26:00,46.2,37.3,30.11,SSW,209,3.0,8.0,71,0.00,,,0.00,VWS V14.00,2013-02-14 04:26:00,
2013-02-13 22:31:00,46.1,37.2,30.11,SW,227,4.0,7.0,71,0.00,,,0.00,VWS V14.00,2013-02-14 04:31:00,
2013-02-13 22:36:00,46.0,37.5,30.11,South,191,2.0,8.0,72,0.00,,,0.00,VWS V14.00,2013-02-14 04:36:00,
2013-02-13 22:41:00,45.9,37.4,30.11,South,178,1.0,7.0,72,0.00,,,0.00,VWS V14.00,2013-02-14 04:41:00,
2013-02-13 22:46:00,45.8,37.3,30.11,South,169,0.0,2.0,72,0.00,,,0.00,VWS V14.00,2013-02-14 04:46:00,
2013-02-13 22:51:00,45.7,37.2,30.11,SSE,168,0.0,0.0,72,0.00,,,0.00,VWS V14.00,2013-02-14 04:51:00,
2013-02-13 22:56:00,45.5,37.0,30.11,SSE,168,0.0,0.0,72,0.00,,,0.00,VWS V14.00,2013-02-14 04:56:00,
2013-02-13 23:00:00,45.3,37.2,30.11,SSE,168,0.0,0.0,73,0.00,,,0.00,VWS V14.00,2013-02-14 05:00:00,
2013-02-13 23:01:00,45.3,37.2,30.11,SSE,167,0.0,0.0,73,0.00,,,0.00,VWS V14.00,2013-02-14 05:01:00,
2013-02-13 23:02:00,45.2,37.1,30.11,South,169,0.0,0.0,73,0.00,,,0.00,VWS V14.00,2013-02-14 05:02:00,
2013-02-13 23:07:00,45.0,36.9,30.11,SSE,167,0.0,0.0,73,0.00,,,0.00,VWS V14.00,2013-02-14 05:07:00,
2013-02-13 23:12:00,44.8,37.0,30.11,South,172,0.0,5.0,74,0.00,,,0.00,VWS V14.00,2013-02-14 05:12:00,
2013-02-13 23:17:00,44.6,36.8,30.11,South,172,0.0,0.0,74,0.00,,,0.00,VWS V14.00,2013-02-14 05:17:00,
2013-02-13 23:22:00,44.4,36.7,30.11,South,171,0.0,1.0,74,0.00,,,0.00,VWS V14.00,2013-02-14 05:22:00,
2013-02-13 23:27:00,44.2,36.8,30.11,South,172,0.0,4.0,75,0.00,,,0.00,VWS V14.00,2013-02-14 05:27:00,
2013-02-13 23:32:00,44.0,36.6,30.11,South,171,0.0,1.0,75,0.00,,,0.00,VWS V14.00,2013-02-14 05:32:00,
2013-02-13 23:37:00,43.9,36.8,30.11,South,171,4.0,4.0,76,0.00,,,0.00,VWS V14.00,2013-02-14 05:37:00,
2013-02-13 23:42:00,43.8,36.7,30.11,South,171,0.0,2.0,76,0.00,,,0.00,VWS V14.00,2013-02-14 05:42:00,
2013-02-13 23:47:00,43.7,36.6,30.11,SSE,165,2.0,5.0,76,0.00,,,0.00,VWS V14.00,2013-02-14 05:47:00,
2013-02-13 23:52:00,43.6,36.5,30.11,SSE,160,0.0,4.0,76,0.00,,,0.00,VWS V14.00,2013-02-14 05:52:00,
2013-02-13 23:57:00,43.5,36.8,30.11,SSE,157,0.0,3.0,77,0.00,,,0.00,VWS V14.00,2013-02-14 05:57:00,